Terminal Aerodrome Forecast
Issued by NWS Topeka, KS

Home | Current Version | Previous Version | Text Only | Print | Product List | Glossary Off
Versions: 1 2 3 4 5 6 7 8 9 10 11 12 13 14 15 16 17 18

000
FTUS43 KTOP 191100
TAFTOP
TAF
KTOP 191120Z 1912/2012 VRB02KT 6SM BR OVC007
     FM191900 18004KT 6SM BR OVC013
     FM200200 17003KT 5SM BR OVC008=

USA.gov is the U.S. government's official web portal to all federal, state and local government web resources and services.